Time;durP1;ratioP1;P1;durP2;ratioP2;P2;SDS_P1;SDS_P2;PMS_P1;PMS_P2;Temp;Humidity;BMP_temperature;BMP_pressure;BME280_temperature;BME280_humidity;BME280_pressure;Samples;Min_cycle;Max_cycle;Signal;HPM_P1;HPM_P2
2022/03/16 00:00:43;;;;;;;;;;;10.30;99.90;;;;;;6140311;23;19928;-86
2022/03/16 00:03:12;;;;;;;;;;;10.30;99.90;;;;;;6140374;23;19921;-86
2022/03/16 00:05:39;;;;;;;;;;;10.40;99.90;;;;;;6140690;23;19921;-87
2022/03/16 00:08:06;;;;;;;;;;;10.30;99.90;;;;;;6139187;23;19961;-87
2022/03/16 00:10:35;;;;;;;;;;;10.80;99.90;;;;;;6139688;23;19921;-88
2022/03/16 00:13:02;;;;;;;;;;;10.30;99.90;;;;;;6140259;23;20000;-87
2022/03/16 00:15:29;;;;;;;;;;;8.00;99.90;;;;;;6140614;23;19921;-88
2022/03/16 00:17:56;;;;;;;;;;;10.30;99.90;;;;;;6140905;23;19957;-86
2022/03/16 00:20:23;;;;;;;;;;;10.40;99.90;;;;;;6141167;23;19928;-87
2022/03/16 00:22:50;;;;;;;;;;;10.20;99.90;;;;;;6140940;23;20361;-87
2022/03/16 00:25:17;;;;;;;;;;;10.30;99.90;;;;;;6141206;23;19965;-86
2022/03/16 00:27:45;;;;;;;;;;;10.30;99.90;;;;;;6141715;23;19927;-89
2022/03/16 00:30:14;;;;;;;;;;;10.20;99.90;;;;;;6140087;23;19965;-88
2022/03/16 00:32:41;;;;;;;;;;;9.90;99.90;;;;;;6138892;23;20388;-88
2022/03/16 00:35:09;;;;;;;;;;;9.90;99.90;;;;;;6137919;23;19929;-89
2022/03/16 00:37:36;;;;;;;;;;;10.10;99.90;;;;;;6138592;23;19925;-88
2022/03/16 00:40:05;;;;;;;;;;;10.00;99.90;;;;;;6139502;23;19921;-88
2022/03/16 00:42:35;;;;;;;;;;;10.40;99.90;;;;;;6138489;23;19921;-88
2022/03/16 00:45:07;;;;;;;;;;;10.60;99.90;;;;;;6137334;23;19921;-87
2022/03/16 00:47:38;;;;;;;;;;;9.00;99.90;;;;;;6139781;23;19921;-87
2022/03/16 00:50:07;;;;;;;;;;;10.90;99.90;;;;;;6138595;23;19992;-88
2022/03/16 00:52:37;;;;;;;;;;;9.90;99.90;;;;;;6138155;23;19948;-87
2022/03/16 00:55:04;;;;;;;;;;;9.90;99.90;;;;;;6140759;23;19921;-88
2022/03/16 00:57:31;;;;;;;;;;;9.80;99.90;;;;;;6138827;23;19928;-88
2022/03/16 00:59:59;;;;;;;;;;;9.20;99.90;;;;;;6112281;23;19928;-88
2022/03/16 01:02:29;;;;;;;;;;;10.40;99.90;;;;;;6138274;23;19921;-88
2022/03/16 01:04:59;;;;;;;;;;;9.70;99.90;;;;;;6138468;23;19920;-87
2022/03/16 01:07:27;;;;;;;;;;;10.00;99.90;;;;;;6138580;23;19927;-88
2022/03/16 01:09:54;;;;;;;;;;;9.80;99.90;;;;;;6138667;23;19920;-88
2022/03/16 01:12:21;;;;;;;;;;;9.60;99.90;;;;;;6138892;23;19921;-87
2022/03/16 01:14:56;;;;;;;;;;;10.00;99.90;;;;;;6138603;23;19920;-87
2022/03/16 01:17:24;;;;;;;;;;;9.60;99.90;;;;;;6112727;23;19959;-89
2022/03/16 01:19:53;;;;;;;;;;;10.50;99.90;;;;;;6137080;23;19921;-90
2022/03/16 01:22:19;;;;;;;;;;;9.70;99.90;;;;;;6137978;23;20395;-89
2022/03/16 01:24:49;;;;;;;;;;;9.60;99.90;;;;;;6139644;23;19945;-89
2022/03/16 01:27:16;;;;;;;;;;;9.80;99.90;;;;;;6140577;23;19928;-88
2022/03/16 01:29:43;;;;;;;;;;;9.90;99.90;;;;;;6137058;23;19921;-89
2022/03/16 01:32:10;;;;;;;;;;;10.20;99.90;;;;;;6137236;23;19952;-87
2022/03/16 01:34:39;;;;;;;;;;;9.80;99.90;;;;;;6139334;23;19935;-85
2022/03/16 01:37:10;;;;;;;;;;;9.30;99.90;;;;;;6140573;23;19925;-86
2022/03/16 01:39:41;;;;;;;;;;;10.50;99.90;;;;;;6139963;23;19921;-89
2022/03/16 01:42:08;;;;;;;;;;;9.90;99.90;;;;;;6138900;23;19931;-87
2022/03/16 01:44:41;;;;;;;;;;;10.10;99.90;;;;;;6137031;23;19921;-89
2022/03/16 01:47:11;;;;;;;;;;;9.40;99.90;;;;;;6137125;23;19927;-87
2022/03/16 01:49:39;;;;;;;;;;;8.20;99.90;;;;;;6137677;23;19931;-88
2022/03/16 01:52:09;;;;;;;;;;;9.30;99.90;;;;;;6111612;23;19921;-88
2022/03/16 01:54:36;;;;;;;;;;;9.30;99.90;;;;;;6137219;23;19921;-89
2022/03/16 01:57:03;;;;;;;;;;;10.90;99.90;;;;;;6136618;23;19928;-88
2022/03/16 01:59:31;;;;;;;;;;;10.00;99.90;;;;;;6136886;23;19927;-89
2022/03/16 02:01:57;;;;;;;;;;;9.60;99.90;;;;;;6137135;23;19948;-87
2022/03/16 02:04:25;;;;;;;;;;;9.70;99.90;;;;;;6137534;23;19927;-88
2022/03/16 02:06:52;;;;;;;;;;;9.90;99.90;;;;;;6137591;23;19928;-88
2022/03/16 02:09:30;;;;;;;;;;;10.20;99.90;;;;;;6136606;23;19928;-90
2022/03/16 02:12:00;;;;;;;;;;;10.00;99.90;;;;;;6137305;23;19929;-87
2022/03/16 02:14:28;;;;;;;;;;;9.60;99.90;;;;;;6136759;23;19925;-89
2022/03/16 02:17:00;;;;;;;;;;;9.60;99.90;;;;;;6136413;23;19928;-89
2022/03/16 02:19:29;;;;;;;;;;;10.20;99.90;;;;;;6137188;23;19928;-88
2022/03/16 02:21:58;;;;;;;;;;;8.00;99.90;;;;;;6137379;23;19920;-89
2022/03/16 02:24:29;;;;;;;;;;;9.70;99.90;;;;;;6138021;23;19984;-88
2022/03/16 02:26:56;;;;;;;;;;;9.40;99.90;;;;;;6138443;23;19960;-87
2022/03/16 02:29:25;;;;;;;;;;;10.00;99.90;;;;;;6138925;23;19920;-88
2022/03/16 02:31:52;;;;;;;;;;;9.70;99.90;;;;;;6138891;23;19928;-89
2022/03/16 02:34:20;;;;;;;;;;;9.40;99.90;;;;;;6139172;23;19953;-88
2022/03/16 02:36:47;;;;;;;;;;;10.00;99.90;;;;;;6141147;23;20289;-87
2022/03/16 02:39:14;;;;;;;;;;;9.40;99.90;;;;;;6141686;23;19969;-88
2022/03/16 02:41:48;;;;;;;;;;;8.10;99.90;;;;;;6141927;23;19944;-88
2022/03/16 02:44:16;;;;;;;;;;;11.10;99.90;;;;;;6141313;23;20345;-89
2022/03/16 02:46:43;;;;;;;;;;;9.50;99.90;;;;;;6141295;23;19969;-88
2022/03/16 02:49:11;;;;;;;;;;;9.90;99.90;;;;;;6140930;23;19927;-88
2022/03/16 02:51:42;;;;;;;;;;;10.10;99.90;;;;;;6140352;23;19921;-87
2022/03/16 02:54:09;;;;;;;;;;;9.40;99.90;;;;;;6141360;23;20019;-87
2022/03/16 02:56:36;;;;;;;;;;;9.60;99.90;;;;;;6140184;23;19933;-89
2022/03/16 02:59:06;;;;;;;;;;;8.10;99.90;;;;;;6141159;23;19969;-90
2022/03/16 03:01:33;;;;;;;;;;;10.00;99.90;;;;;;6141150;23;19956;-88
2022/03/16 03:04:02;;;;;;;;;;;9.60;99.90;;;;;;6140453;23;19929;-89
2022/03/16 03:06:31;;;;;;;;;;;9.80;99.90;;;;;;6140760;23;20276;-89
2022/03/16 03:08:59;;;;;;;;;;;9.50;99.90;;;;;;6140794;23;19921;-89
2022/03/16 03:11:27;;;;;;;;;;;9.40;99.90;;;;;;6140939;23;19921;-87
2022/03/16 03:13:54;;;;;;;;;;;9.40;99.90;;;;;;6140842;23;19944;-88
2022/03/16 03:16:23;;;;;;;;;;;9.80;99.90;;;;;;6140904;23;20324;-88
2022/03/16 03:18:52;;;;;;;;;;;9.40;99.90;;;;;;6141324;23;20344;-88
2022/03/16 03:21:19;;;;;;;;;;;9.40;99.90;;;;;;6140762;23;19924;-89
2022/03/16 03:23:46;;;;;;;;;;;9.20;99.90;;;;;;6140930;23;19921;-88
2022/03/16 03:26:13;;;;;;;;;;;10.00;99.90;;;;;;6139918;23;19921;-89
2022/03/16 03:28:40;;;;;;;;;;;9.70;99.90;;;;;;6140901;23;19925;-87
2022/03/16 03:31:07;;;;;;;;;;;13.20;99.90;;;;;;6140320;23;19920;-87
2022/03/16 03:33:40;;;;;;;;;;;9.40;99.90;;;;;;6141360;23;19920;-89
2022/03/16 03:36:07;;;;;;;;;;;9.60;99.90;;;;;;6140978;23;19921;-87
2022/03/16 03:38:34;;;;;;;;;;;9.60;99.90;;;;;;6141254;23;19921;-88
2022/03/16 03:41:01;;;;;;;;;;;11.50;99.90;;;;;;6140850;23;19921;-88
2022/03/16 03:43:28;;;;;;;;;;;10.30;99.90;;;;;;6140943;23;19927;-89
2022/03/16 03:45:59;;;;;;;;;;;10.80;99.90;;;;;;6139971;23;19921;-88
2022/03/16 03:48:29;;;;;;;;;;;7.00;99.90;;;;;;6140445;23;19921;-89
2022/03/16 03:50:58;;;;;;;;;;;9.30;99.90;;;;;;6140551;23;19980;-88
2022/03/16 03:53:25;;;;;;;;;;;9.70;99.90;;;;;;6139508;23;19976;-90
2022/03/16 03:55:52;;;;;;;;;;;9.70;99.90;;;;;;6139649;23;19927;-86
2022/03/16 03:58:20;;;;;;;;;;;10.10;99.90;;;;;;6114478;23;20461;-88
2022/03/16 04:00:49;;;;;;;;;;;7.60;99.90;;;;;;6140213;23;19920;-88
2022/03/16 04:03:16;;;;;;;;;;;9.80;99.90;;;;;;6140117;23;19932;-87
2022/03/16 04:05:43;;;;;;;;;;;9.30;99.90;;;;;;6139938;23;19943;-86
2022/03/16 04:08:11;;;;;;;;;;;10.60;99.90;;;;;;6140601;23;19924;-88
2022/03/16 04:10:40;;;;;;;;;;;9.40;99.90;;;;;;6140041;23;19999;-88
2022/03/16 04:13:09;;;;;;;;;;;9.70;99.90;;;;;;6140755;23;19953;-88
2022/03/16 04:15:36;;;;;;;;;;;9.60;99.90;;;;;;6139753;23;19925;-88
2022/03/16 04:18:06;;;;;;;;;;;9.40;99.90;;;;;;6139721;23;19921;-88
2022/03/16 04:20:32;;;;;;;;;;;9.40;99.90;;;;;;6139628;23;19927;-88
2022/03/16 04:23:01;;;;;;;;;;;8.80;99.90;;;;;;6139308;23;20440;-89
2022/03/16 04:25:29;;;;;;;;;;;9.60;99.90;;;;;;6138887;23;19921;-90
2022/03/16 04:28:00;;;;;;;;;;;9.50;99.90;;;;;;6139446;23;19924;-87
2022/03/16 04:30:28;;;;;;;;;;;9.40;99.90;;;;;;6139357;23;19927;-89
2022/03/16 04:32:55;;;;;;;;;;;9.30;99.90;;;;;;6139473;23;19927;-89
2022/03/16 04:35:24;;;;;;;;;;;10.90;99.90;;;;;;6140013;23;19921;-88
2022/03/16 04:37:51;;;;;;;;;;;9.50;99.90;;;;;;6139066;23;20241;-87
2022/03/16 04:40:18;;;;;;;;;;;9.80;99.90;;;;;;6139225;23;19943;-88
2022/03/16 04:42:47;;;;;;;;;;;8.50;99.90;;;;;;6139177;23;19951;-89
2022/03/16 04:45:14;;;;;;;;;;;8.60;99.90;;;;;;6139936;23;20296;-88
2022/03/16 04:47:43;;;;;;;;;;;8.70;99.90;;;;;;6138476;23;19921;-88
2022/03/16 04:50:10;;;;;;;;;;;9.10;99.90;;;;;;6139390;23;19921;-90
2022/03/16 04:52:42;;;;;;;;;;;9.40;99.90;;;;;;6138436;23;19921;-87
2022/03/16 04:55:09;;;;;;;;;;;9.20;99.90;;;;;;6138594;23;19935;-89
2022/03/16 04:57:37;;;;;;;;;;;8.90;99.90;;;;;;6138592;23;20001;-88
2022/03/16 05:00:06;;;;;;;;;;;9.10;99.90;;;;;;6139020;23;19920;-88
2022/03/16 05:02:33;;;;;;;;;;;9.00;99.90;;;;;;6138471;23;20359;-89
2022/03/16 05:05:02;;;;;;;;;;;9.80;99.90;;;;;;6138562;23;19973;-88
2022/03/16 05:07:29;;;;;;;;;;;8.70;99.90;;;;;;6139370;23;19992;-88
2022/03/16 05:09:56;;;;;;;;;;;9.30;99.90;;;;;;6138856;23;19932;-87
2022/03/16 05:12:23;;;;;;;;;;;8.90;99.90;;;;;;6138537;23;19963;-87
2022/03/16 05:14:50;;;;;;;;;;;9.80;99.90;;;;;;6139303;23;19925;-87
2022/03/16 05:17:21;;;;;;;;;;;9.10;99.90;;;;;;6138501;23;19921;-89
2022/03/16 05:19:51;;;;;;;;;;;9.70;99.90;;;;;;6141270;23;20225;-87
2022/03/16 05:22:18;;;;;;;;;;;10.20;99.90;;;;;;6141479;23;19928;-88
2022/03/16 05:24:45;;;;;;;;;;;9.00;99.90;;;;;;6140549;23;19920;-88
2022/03/16 05:27:12;;;;;;;;;;;9.60;99.90;;;;;;6139348;23;19921;-89
2022/03/16 05:29:39;;;;;;;;;;;9.00;99.90;;;;;;6138788;23;19921;-89
2022/03/16 05:32:07;;;;;;;;;;;8.90;99.90;;;;;;6137634;23;19925;-90
2022/03/16 05:34:37;;;;;;;;;;;9.80;99.90;;;;;;6110968;23;19949;-90
2022/03/16 05:37:05;;;;;;;;;;;9.90;99.90;;;;;;6137062;23;19921;-91
2022/03/16 05:39:32;;;;;;;;;;;6.30;99.90;;;;;;6138010;23;19921;-89
2022/03/16 05:42:03;;;;;;;;;;;8.90;99.90;;;;;;6147181;23;20053;-90
2022/03/16 05:44:29;;;;;;;;;;;9.20;99.90;;;;;;6136112;23;19921;-90
2022/03/16 05:46:57;;;;;;;;;;;8.80;99.90;;;;;;6136397;23;19921;-89
2022/03/16 05:49:25;;;;;;;;;;;9.00;99.90;;;;;;6136518;23;19921;-89
2022/03/16 05:51:54;;;;;;;;;;;9.00;99.90;;;;;;6136607;23;19925;-90
2022/03/16 05:54:21;;;;;;;;;;;10.00;99.90;;;;;;6136476;23;19921;-88
2022/03/16 05:56:47;;;;;;;;;;;8.60;99.90;;;;;;6137257;23;19952;-89
2022/03/16 05:59:15;;;;;;;;;;;8.00;99.90;;;;;;6136141;23;19921;-89
2022/03/16 06:01:42;;;;;;;;;;;9.20;99.90;;;;;;6136036;23;19921;-90
2022/03/16 06:04:09;;;;;;;;;;;9.30;99.90;;;;;;6137429;23;19920;-89
2022/03/16 06:06:36;;;;;;;;;;;8.20;99.90;;;;;;6136993;23;19921;-88
2022/03/16 06:09:05;;;;;;;;;;;8.60;99.90;;;;;;6135558;23;19928;-90
2022/03/16 06:11:32;;;;;;;;;;;9.30;99.90;;;;;;6135850;23;19924;-89
2022/03/16 06:13:59;;;;;;;;;;;8.80;99.90;;;;;;6136966;23;19927;-89
2022/03/16 06:16:29;;;;;;;;;;;9.10;99.90;;;;;;6135499;23;19996;-90
2022/03/16 06:18:56;;;;;;;;;;;9.00;99.90;;;;;;6137278;23;19976;-87
2022/03/16 06:21:23;;;;;;;;;;;9.30;99.90;;;;;;6136606;23;19952;-90
2022/03/16 06:23:50;;;;;;;;;;;9.60;99.90;;;;;;6137491;23;20256;-88
2022/03/16 06:26:18;;;;;;;;;;;8.90;99.90;;;;;;6137252;23;19920;-88
2022/03/16 06:28:45;;;;;;;;;;;8.70;99.90;;;;;;6137288;23;19921;-88
2022/03/16 06:31:13;;;;;;;;;;;9.60;99.90;;;;;;6136078;23;19925;-89
2022/03/16 06:33:40;;;;;;;;;;;5.80;99.90;;;;;;6137277;23;19935;-89
2022/03/16 06:36:07;;;;;;;;;;;8.90;99.90;;;;;;6136345;23;19994;-89
2022/03/16 06:38:36;;;;;;;;;;;9.00;99.90;;;;;;6136069;23;20407;-89
2022/03/16 06:41:03;;;;;;;;;;;9.00;99.90;;;;;;6137186;23;19921;-88
2022/03/16 06:43:31;;;;;;;;;;;10.00;99.90;;;;;;6136982;23;20333;-89
2022/03/16 06:45:58;;;;;;;;;;;8.90;99.90;;;;;;6134980;23;19928;-89
2022/03/16 06:48:26;;;;;;;;;;;9.30;99.90;;;;;;6135312;23;19997;-90
2022/03/16 06:50:53;;;;;;;;;;;9.50;99.90;;;;;;6138565;23;19921;-91
2022/03/16 06:53:21;;;;;;;;;;;9.20;99.90;;;;;;6137744;23;19973;-87
2022/03/16 06:55:48;;;;;;;;;;;10.00;99.90;;;;;;6139235;23;19921;-91
2022/03/16 06:58:15;;;;;;;;;;;7.90;99.90;;;;;;6137011;23;19921;-88
2022/03/16 07:00:43;;;;;;;;;;;9.20;99.90;;;;;;6136215;23;19925;-89
2022/03/16 07:03:10;;;;;;;;;;;9.30;99.90;;;;;;6138532;23;19976;-90
2022/03/16 07:05:41;;;;;;;;;;;9.30;99.90;;;;;;6133757;23;19927;-88
2022/03/16 07:08:09;;;;;;;;;;;9.30;99.90;;;;;;6138378;23;19925;-89
2022/03/16 07:10:37;;;;;;;;;;;9.20;99.90;;;;;;6135740;23;19988;-87
2022/03/16 07:13:04;;;;;;;;;;;10.10;99.90;;;;;;6138192;23;19928;-89
2022/03/16 07:15:32;;;;;;;;;;;9.20;99.90;;;;;;6135694;23;19985;-88
2022/03/16 07:18:02;;;;;;;;;;;9.10;99.90;;;;;;6134796;23;19925;-90
2022/03/16 07:20:28;;;;;;;;;;;8.80;99.90;;;;;;6134586;23;19925;-90
2022/03/16 07:23:02;;;;;;;;;;;9.10;99.90;;;;;;6134705;23;19928;-89
2022/03/16 07:25:29;;;;;;;;;;;9.10;99.90;;;;;;6131976;23;19925;-90
2022/03/16 07:27:56;;;;;;;;;;;9.00;99.90;;;;;;6137035;23;20333;-89
2022/03/16 07:30:23;;;;;;;;;;;9.10;99.90;;;;;;6137842;23;20395;-87
2022/03/16 07:32:50;;;;;;;;;;;9.80;99.90;;;;;;6136308;23;20333;-90
2022/03/16 07:35:24;;;;;;;;;;;9.40;99.90;;;;;;6138114;23;19921;-88
2022/03/16 07:37:51;;;;;;;;;;;9.40;99.90;;;;;;6138734;23;20296;-89
2022/03/16 07:40:17;;;;;;;;;;;9.10;99.90;;;;;;6136853;23;19928;-88
2022/03/16 07:42:45;;;;;;;;;;;9.90;99.90;;;;;;6138628;23;19928;-89
2022/03/16 07:45:12;;;;;;;;;;;10.70;99.90;;;;;;6137652;23;19921;-88
2022/03/16 07:47:39;;;;;;;;;;;8.70;99.90;;;;;;6137662;23;19920;-89
2022/03/16 07:50:06;;;;;;;;;;;9.90;99.90;;;;;;6138170;23;19980;-87
2022/03/16 07:52:35;;;;;;;;;;;9.80;99.90;;;;;;6136278;23;19925;-90
2022/03/16 07:55:02;;;;;;;;;;;9.40;99.90;;;;;;6136004;23;20027;-90
2022/03/16 07:57:28;;;;;;;;;;;10.00;99.90;;;;;;6138168;23;19921;-89
2022/03/16 07:59:56;;;;;;;;;;;10.20;99.90;;;;;;6135817;23;19928;-89
2022/03/16 08:02:23;;;;;;;;;;;9.30;99.90;;;;;;6135580;23;19971;-90
2022/03/16 08:04:50;;;;;;;;;;;10.20;99.90;;;;;;6137124;23;20344;-91
2022/03/16 08:07:16;;;;;;;;;;;10.30;99.90;;;;;;6137175;23;19921;-89
2022/03/16 08:09:49;;;;;;;;;;;9.90;99.90;;;;;;6136072;23;19957;-89
2022/03/16 08:12:17;;;;;;;;;;;10.70;99.90;;;;;;6136324;23;19928;-89
2022/03/16 08:14:46;;;;;;;;;;;11.70;99.90;;;;;;6133050;23;19931;-88
2022/03/16 08:17:13;;;;;;;;;;;9.80;99.90;;;;;;6137776;23;19925;-90
2022/03/16 08:19:40;;;;;;;;;;;8.80;99.90;;;;;;6133462;23;19953;-88
2022/03/16 08:22:07;;;;;;;;;;;10.20;99.90;;;;;;6135899;23;19937;-90
2022/03/16 08:24:42;;;;;;;;;;;10.40;99.90;;;;;;6136515;23;19999;-91
2022/03/16 08:27:10;;;;;;;;;;;10.90;99.90;;;;;;6135931;23;20210;-88
2022/03/16 08:29:38;;;;;;;;;;;10.50;99.90;;;;;;6133152;23;20000;-87
2022/03/16 08:32:07;;;;;;;;;;;10.40;99.90;;;;;;6136579;23;19921;-90
2022/03/16 08:34:34;;;;;;;;;;;10.40;99.90;;;;;;6137578;23;19921;-88
2022/03/16 08:37:02;;;;;;;;;;;10.70;99.90;;;;;;6135488;23;19925;-90
2022/03/16 08:39:30;;;;;;;;;;;11.20;99.90;;;;;;6138072;23;19932;-92
2022/03/16 08:41:57;;;;;;;;;;;10.60;99.90;;;;;;6132217;23;20204;-88
2022/03/16 08:44:25;;;;;;;;;;;10.70;99.90;;;;;;6132089;23;19928;-88
2022/03/16 08:46:52;;;;;;;;;;;10.40;99.90;;;;;;6130453;23;19984;-90
2022/03/16 08:49:21;;;;;;;;;;;11.00;99.90;;;;;;6133663;23;19931;-88
2022/03/16 08:51:48;;;;;;;;;;;10.30;99.90;;;;;;6130881;23;19920;-89
2022/03/16 08:54:15;;;;;;;;;;;10.10;99.90;;;;;;6134206;23;19940;-88
2022/03/16 08:56:42;;;;;;;;;;;10.50;99.90;;;;;;6129967;23;19996;-90
2022/03/16 08:59:09;;;;;;;;;;;11.00;99.90;;;;;;6130103;23;19928;-86
2022/03/16 09:01:40;;;;;;;;;;;10.10;99.90;;;;;;6129779;23;20301;-89
2022/03/16 09:04:08;;;;;;;;;;;10.80;99.90;;;;;;6131263;23;19921;-87
2022/03/16 09:06:34;;;;;;;;;;;10.10;99.90;;;;;;6139099;23;20248;-88
2022/03/16 09:09:02;;;;;;;;;;;10.30;99.90;;;;;;6134599;23;19921;-88
2022/03/16 09:11:29;;;;;;;;;;;10.20;99.90;;;;;;6129880;23;20008;-87
2022/03/16 09:13:56;;;;;;;;;;;10.50;99.90;;;;;;6129182;23;20244;-89
2022/03/16 09:16:25;;;;;;;;;;;10.90;99.90;;;;;;6127955;23;20337;-89
2022/03/16 09:18:56;;;;;;;;;;;10.50;99.90;;;;;;6128308;23;19927;-89
2022/03/16 09:21:24;;;;;;;;;;;13.40;99.90;;;;;;6130368;23;19927;-89
2022/03/16 09:23:52;;;;;;;;;;;11.30;99.90;;;;;;6129729;23;19928;-89
2022/03/16 09:26:21;;;;;;;;;;;10.60;99.90;;;;;;6128374;23;20003;-88
2022/03/16 09:28:48;;;;;;;;;;;9.50;99.90;;;;;;6127781;23;19959;-89
2022/03/16 09:31:15;;;;;;;;;;;10.90;99.90;;;;;;6129630;23;19945;-90
2022/03/16 09:33:44;;;;;;;;;;;10.60;99.90;;;;;;6129087;23;19920;-90
2022/03/16 09:36:13;;;;;;;;;;;11.20;99.90;;;;;;6127389;23;19925;-90
2022/03/16 09:38:40;;;;;;;;;;;10.70;99.90;;;;;;6127339;23;20003;-89
2022/03/16 09:41:07;;;;;;;;;;;11.30;99.90;;;;;;6127557;23;19921;-89
2022/03/16 09:43:39;;;;;;;;;;;10.60;99.90;;;;;;6128517;23;20003;-89
2022/03/16 09:46:08;;;;;;;;;;;11.70;99.90;;;;;;6127557;23;19983;-89
2022/03/16 09:48:38;;;;;;;;;;;10.90;99.90;;;;;;6127686;23;19921;-89
2022/03/16 09:51:09;;;;;;;;;;;9.80;99.90;;;;;;6128069;23;19936;-89
2022/03/16 09:53:49;;;;;;;;;;;10.00;99.90;;;;;;6127595;23;20313;-89
2022/03/16 09:56:30;;;;;;;;;;;11.20;99.90;;;;;;6128124;23;19921;-88
2022/03/16 09:59:00;;;;;;;;;;;8.90;99.90;;;;;;6129167;23;20000;-90
2022/03/16 10:01:27;;;;;;;;;;;14.30;99.90;;;;;;6127878;23;19921;-90
2022/03/16 10:03:59;;;;;;;;;;;11.60;99.90;;;;;;6128098;23;19931;-89
2022/03/16 10:06:30;;;;;;;;;;;11.60;99.90;;;;;;6127737;23;19964;-88
2022/03/16 10:15:00;;;;;;;;;;;11.50;99.90;;;;;;6127193;23;20355;-89
2022/03/16 10:17:47;;;;;;;;;;;11.30;99.90;;;;;;6127638;23;19928;-89
2022/03/16 10:20:23;;;;;;;;;;;11.30;99.90;;;;;;6127704;23;19925;-89
2022/03/16 10:22:56;;;;;;;;;;;10.50;99.90;;;;;;6124786;23;19943;-89
2022/03/16 10:25:25;;;;;;;;;;;12.30;99.90;;;;;;6128221;23;20368;-89
2022/03/16 10:28:08;;;;;;;;;;;11.20;99.90;;;;;;6128207;23;19948;-88
2022/03/16 10:30:46;;;;;;;;;;;10.50;99.90;;;;;;6128403;23;19921;-88
2022/03/16 10:33:16;;;;;;;;;;;11.20;99.90;;;;;;6127872;23;19952;-88
2022/03/16 10:35:55;;;;;;;;;;;10.60;99.90;;;;;;6126798;23;20348;-90
2022/03/16 10:38:22;;;;;;;;;;;10.80;99.90;;;;;;6127126;23;19928;-89
2022/03/16 10:40:51;;;;;;;;;;;10.80;99.90;;;;;;6126795;23;19992;-90
2022/03/16 10:49:03;;;;;;;;;;;10.90;99.90;;;;;;6128892;23;19947;-88
2022/03/16 10:51:29;;;;;;;;;;;10.60;99.90;;;;;;6129251;23;19991;-89
2022/03/16 10:54:00;;;;;;;;;;;10.10;99.90;;;;;;6127639;23;20368;-89
2022/03/16 10:56:31;;;;;;;;;;;10.70;99.90;;;;;;6118099;23;20241;-89
2022/03/16 10:58:59;;;;;;;;;;;10.70;99.90;;;;;;6128832;23;19931;-88
2022/03/16 11:01:27;;;;;;;;;;;11.50;99.90;;;;;;6096023;23;20333;-89
2022/03/16 11:03:58;;;;;;;;;;;11.00;99.90;;;;;;6131372;23;19921;-90
2022/03/16 11:06:25;;;;;;;;;;;11.40;99.90;;;;;;6130171;23;20326;-88
2022/03/16 11:08:53;;;;;;;;;;;10.10;99.90;;;;;;6129539;23;19921;-89
2022/03/16 11:14:15;;;;;;;;;;;11.40;99.90;;;;;;6117198;23;19932;-83
2022/03/16 11:16:42;;;;;;;;;;;12.10;99.90;;;;;;6130910;23;19925;-88
2022/03/16 11:19:14;;;;;;;;;;;12.40;99.90;;;;;;6132304;23;19963;-90
2022/03/16 11:21:45;;;;;;;;;;;11.50;99.90;;;;;;6133713;23;20309;-89
2022/03/16 11:24:28;;;;;;;;;;;11.50;99.90;;;;;;6133514;23;19929;-90
2022/03/16 11:27:09;;;;;;;;;;;12.20;99.90;;;;;;6132769;23;20015;-89
2022/03/16 11:29:53;;;;;;;;;;;11.60;99.90;;;;;;6128724;23;20329;-87
2022/03/16 11:32:20;;;;;;;;;;;11.60;99.90;;;;;;6131625;23;19956;-91
2022/03/16 11:34:48;;;;;;;;;;;11.70;99.90;;;;;;6126826;23;20003;-86
2022/03/16 11:37:15;;;;;;;;;;;11.70;99.90;;;;;;6125321;23;19999;-89
2022/03/16 11:39:44;;;;;;;;;;;11.80;99.90;;;;;;6129194;23;20365;-88
2022/03/16 11:42:16;;;;;;;;;;;11.80;99.90;;;;;;6128396;23;19929;-90
2022/03/16 11:44:45;;;;;;;;;;;12.30;99.90;;;;;;6127459;23;19921;-89
2022/03/16 11:47:32;;;;;;;;;;;11.80;99.90;;;;;;6127179;23;19931;-88
2022/03/16 11:50:11;;;;;;;;;;;11.90;99.90;;;;;;6128528;23;19972;-89
2022/03/16 11:53:00;;;;;;;;;;;11.90;99.90;;;;;;6128594;23;19920;-88
2022/03/16 11:55:41;;;;;;;;;;;11.80;99.90;;;;;;6128243;23;19921;-88
2022/03/16 11:58:26;;;;;;;;;;;12.30;99.90;;;;;;6128357;23;19943;-88
2022/03/16 12:01:11;;;;;;;;;;;12.40;99.90;;;;;;6128004;23;19925;-88
2022/03/16 12:03:45;;;;;;;;;;;14.70;99.90;;;;;;6128085;23;19921;-89
2022/03/16 12:06:13;;;;;;;;;;;12.60;99.90;;;;;;6128548;23;19989;-88
2022/03/16 12:08:58;;;;;;;;;;;12.70;99.90;;;;;;6128245;23;19921;-89
2022/03/16 12:14:09;;;;;;;;;;;13.10;99.90;;;;;;6126855;23;19945;-89
2022/03/16 12:16:41;;;;;;;;;;;12.80;99.90;;;;;;6127467;23;19974;-89
2022/03/16 12:19:22;;;;;;;;;;;12.50;99.90;;;;;;6127815;23;20347;-88
2022/03/16 12:21:51;;;;;;;;;;;12.30;99.90;;;;;;6126023;23;19929;-87
2022/03/16 12:30:04;;;;;;;;;;;12.40;99.90;;;;;;6129069;23;19980;-87
2022/03/16 12:32:39;;;;;;;;;;;13.00;99.90;;;;;;6128689;23;19986;-89
2022/03/16 12:35:07;;;;;;;;;;;12.70;99.90;;;;;;6127295;23;20367;-88
2022/03/16 12:37:47;;;;;;;;;;;12.60;99.90;;;;;;6131793;23;20270;-87
2022/03/16 12:40:22;;;;;;;;;;;12.60;99.90;;;;;;6127055;23;19920;-88
2022/03/16 12:42:53;;;;;;;;;;;12.20;99.90;;;;;;6127244;23;19928;-88
2022/03/16 12:45:28;;;;;;;;;;;12.10;99.90;;;;;;6127074;23;19931;-88
2022/03/16 12:48:03;;;;;;;;;;;12.00;99.90;;;;;;6130242;23;19976;-88
2022/03/16 12:50:30;;;;;;;;;;;12.00;99.90;;;;;;6128989;23;20012;-87
2022/03/16 12:52:58;;;;;;;;;;;12.00;99.90;;;;;;6130032;23;20313;-87
2022/03/16 12:55:25;;;;;;;;;;;12.00;99.90;;;;;;6127902;23;19925;-87
2022/03/16 12:57:57;;;;;;;;;;;12.10;99.90;;;;;;6127171;23;19968;-86
2022/03/16 13:00:30;;;;;;;;;;;12.20;99.90;;;;;;6127925;23;19988;-86
2022/03/16 13:03:12;;;;;;;;;;;12.40;99.90;;;;;;6129070;23;19921;-87
2022/03/16 13:05:39;;;;;;;;;;;12.50;99.90;;;;;;6128698;23;19971;-88
2022/03/16 13:08:08;;;;;;;;;;;12.30;99.90;;;;;;6127515;23;19968;-89
2022/03/16 13:11:14;;;;;;;;;;;13.30;99.90;;;;;;6128203;23;19977;-87
2022/03/16 13:13:22;;;;;;;;;;;12.40;99.90;;;;;;6126824;23;19976;-88
2022/03/16 13:15:50;;;;;;;;;;;12.20;99.90;;;;;;6127756;23;19928;-88
2022/03/16 13:18:28;;;;;;;;;;;12.40;99.90;;;;;;6127129;23;19921;-87
2022/03/16 13:20:55;;;;;;;;;;;12.30;99.90;;;;;;6127123;23;20341;-87
2022/03/16 13:23:32;;;;;;;;;;;12.20;99.90;;;;;;6127876;23;19952;-88
2022/03/16 13:26:07;;;;;;;;;;;12.10;99.90;;;;;;6127886;23;19960;-87
2022/03/16 13:28:36;;;;;;;;;;;12.10;99.90;;;;;;6128073;23;19968;-87
2022/03/16 13:31:03;;;;;;;;;;;12.10;99.90;;;;;;6127465;23;20225;-87
2022/03/16 13:33:30;;;;;;;;;;;12.20;99.90;;;;;;6128047;23;20234;-88
2022/03/16 13:36:08;;;;;;;;;;;12.20;99.90;;;;;;6126787;23;19924;-87
2022/03/16 13:38:37;;;;;;;;;;;12.30;99.90;;;;;;6127431;23;19972;-87
2022/03/16 13:41:13;;;;;;;;;;;12.30;99.90;;;;;;6126896;23;19965;-87
2022/03/16 13:43:40;;;;;;;;;;;12.00;99.90;;;;;;6127801;23;19925;-87
2022/03/16 13:46:09;;;;;;;;;;;11.50;99.90;;;;;;6127166;23;20615;-87
2022/03/16 13:48:38;;;;;;;;;;;11.20;99.90;;;;;;6127354;23;19999;-88
2022/03/16 13:51:06;;;;;;;;;;;11.00;99.90;;;;;;6126665;23;20004;-88
2022/03/16 13:53:42;;;;;;;;;;;10.80;99.90;;;;;;6127622;23;19979;-86
2022/03/16 13:56:12;;;;;;;;;;;10.70;99.90;;;;;;6126564;23;19921;-88
2022/03/16 13:58:41;;;;;;;;;;;10.60;99.90;;;;;;6126317;23;20449;-86
2022/03/16 14:01:08;;;;;;;;;;;10.50;99.90;;;;;;6126726;23;19924;-87
2022/03/16 14:03:35;;;;;;;;;;;10.30;99.90;;;;;;6127178;23;20334;-87
2022/03/16 14:06:14;;;;;;;;;;;10.00;99.90;;;;;;6126971;23;19924;-87
2022/03/16 14:08:45;;;;;;;;;;;10.10;99.90;;;;;;6128212;23;20269;-87
2022/03/16 14:11:12;;;;;;;;;;;9.90;99.90;;;;;;6126671;23;19939;-87
2022/03/16 14:13:39;;;;;;;;;;;9.70;99.90;;;;;;6127867;23;19921;-87
2022/03/16 14:16:10;;;;;;;;;;;9.70;99.90;;;;;;6127304;23;19921;-87
2022/03/16 14:18:37;;;;;;;;;;;9.70;99.90;;;;;;6126778;23;19956;-87
2022/03/16 14:21:04;;;;;;;;;;;9.70;99.90;;;;;;6127246;23;20004;-86
2022/03/16 14:23:32;;;;;;;;;;;8.80;99.90;;;;;;6126719;23;20026;-87
2022/03/16 14:26:01;;;;;;;;;;;9.60;99.90;;;;;;6128106;23;20477;-88
2022/03/16 14:28:31;;;;;;;;;;;9.60;99.90;;;;;;6123282;23;19921;-88
2022/03/16 14:30:58;;;;;;;;;;;9.50;99.90;;;;;;6127349;23;19920;-87
2022/03/16 14:33:29;;;;;;;;;;;9.50;99.90;;;;;;6125844;23;19969;-87
2022/03/16 14:35:57;;;;;;;;;;;9.50;99.90;;;;;;6132363;23;19945;-84
2022/03/16 14:38:24;;;;;;;;;;;9.70;99.90;;;;;;6128310;23;19928;-85
2022/03/16 14:40:55;;;;;;;;;;;9.80;99.90;;;;;;6115566;23;19921;-88
2022/03/16 14:43:26;;;;;;;;;;;9.40;99.90;;;;;;6118882;23;19921;-90
2022/03/16 14:45:53;;;;;;;;;;;9.30;99.90;;;;;;6132588;23;19925;-87
2022/03/16 14:48:20;;;;;;;;;;;9.40;99.90;;;;;;6130098;23;19975;-88
2022/03/16 14:50:49;;;;;;;;;;;9.40;99.90;;;;;;6129749;23;19928;-88
2022/03/16 14:53:15;;;;;;;;;;;9.30;99.90;;;;;;6132554;23;19921;-88
2022/03/16 14:55:50;;;;;;;;;;;9.20;99.90;;;;;;6129810;23;20462;-89
2022/03/16 14:58:16;;;;;;;;;;;9.30;99.90;;;;;;6131467;23;19960;-91